createdAt,value
2023-01-29T00:02:52.581Z,99.90
2023-01-29T00:05:46.862Z,99.90
2023-01-29T00:08:43.632Z,99.90
2023-01-29T00:11:38.155Z,99.90
2023-01-29T00:14:32.388Z,99.90
2023-01-29T00:17:29.568Z,99.90
2023-01-29T00:20:23.378Z,99.90
2023-01-29T00:23:17.878Z,99.90
2023-01-29T00:26:12.581Z,99.90
2023-01-29T00:29:07.641Z,99.90
2023-01-29T00:32:01.956Z,99.90
2023-01-29T00:34:56.341Z,99.90
2023-01-29T00:37:50.590Z,99.90
2023-01-29T00:41:03.078Z,99.90
2023-01-29T00:44:16.203Z,99.90
2023-01-29T00:47:30.376Z,99.90
2023-01-29T00:50:24.716Z,99.90
2023-01-29T00:53:19.068Z,99.90
2023-01-29T00:56:13.389Z,99.90
2023-01-29T00:59:07.767Z,99.10
2023-01-29T01:02:20.631Z,98.70
2023-01-29T01:05:19.343Z,98.50
2023-01-29T01:08:31.899Z,98.70
2023-01-29T01:11:26.271Z,98.50
2023-01-29T01:14:21.969Z,98.70
2023-01-29T01:17:16.897Z,98.60
2023-01-29T01:20:14.951Z,99.00
2023-01-29T01:23:09.658Z,99.00
2023-01-29T01:26:03.927Z,98.40
2023-01-29T01:28:58.326Z,98.40
2023-01-29T01:31:56.246Z,98.70
2023-01-29T01:34:50.618Z,98.80
2023-01-29T01:37:45.192Z,99.00
2023-01-29T01:40:45.482Z,99.10
2023-01-29T01:44:09.155Z,99.20
2023-01-29T01:47:04.114Z,99.20
2023-01-29T01:50:06.705Z,98.60
2023-01-29T01:53:11.588Z,98.90
2023-01-29T01:56:18.002Z,98.70
2023-01-29T01:59:18.842Z,99.30
2023-01-29T02:02:31.329Z,98.80
2023-01-29T02:05:44.791Z,98.90
2023-01-29T02:09:24.768Z,97.60
2023-01-29T02:12:20.238Z,98.40
2023-01-29T02:15:15.515Z,97.70
2023-01-29T02:18:10.813Z,96.80
2023-01-29T02:21:08.063Z,97.40
2023-01-29T02:24:20.589Z,96.10
2023-01-29T02:27:23.687Z,95.80
2023-01-29T02:30:41.569Z,95.00
2023-01-29T02:34:01.586Z,94.70
2023-01-29T02:37:06.603Z,94.80
2023-01-29T02:40:18.060Z,94.40
2023-01-29T02:43:43.451Z,94.10
2023-01-29T02:46:54.901Z,93.80
2023-01-29T02:49:58.306Z,92.40
2023-01-29T02:53:20.683Z,92.10
2023-01-29T02:56:54.801Z,91.90
2023-01-29T03:00:00.547Z,91.60
2023-01-29T03:03:36.523Z,91.30
2023-01-29T03:06:37.755Z,90.90
2023-01-29T03:09:43.561Z,90.80
2023-01-29T03:12:42.676Z,91.20
2023-01-29T03:15:43.808Z,91.00
2023-01-29T03:18:47.095Z,91.40
2023-01-29T03:21:52.649Z,90.70
2023-01-29T03:25:09.584Z,90.60
2023-01-29T03:28:24.379Z,90.40
2023-01-29T03:31:38.653Z,89.20
2023-01-29T03:34:40.212Z,90.00
2023-01-29T03:37:43.729Z,87.90
2023-01-29T03:40:57.592Z,88.20
2023-01-29T03:44:02.415Z,88.60
2023-01-29T03:47:06.651Z,87.40
2023-01-29T03:50:22.170Z,87.50
2023-01-29T03:53:39.513Z,86.20
2023-01-29T03:56:56.004Z,87.30
2023-01-29T03:59:50.320Z,86.40
2023-01-29T04:03:16.380Z,85.80
2023-01-29T04:06:25.527Z,85.10
2023-01-29T04:09:24.628Z,85.60
2023-01-29T04:12:25.154Z,84.10
2023-01-29T04:15:21.001Z,83.10
2023-01-29T04:18:15.592Z,82.70
2023-01-29T04:21:12.446Z,83.50
2023-01-29T04:24:08.591Z,83.50
2023-01-29T04:27:23.072Z,83.30
2023-01-29T04:30:49.279Z,83.60
2023-01-29T04:34:06.703Z,83.90
2023-01-29T04:37:39.561Z,82.10
2023-01-29T04:40:58.173Z,82.30
2023-01-29T04:44:11.159Z,82.70
2023-01-29T04:47:34.029Z,82.00
2023-01-29T04:50:41.332Z,82.10
2023-01-29T04:54:01.595Z,81.40
2023-01-29T04:57:32.944Z,81.20
2023-01-29T05:00:30.020Z,80.00
2023-01-29T05:03:27.556Z,80.70
2023-01-29T05:06:25.378Z,81.00
2023-01-29T05:09:21.662Z,79.70
2023-01-29T05:12:18.200Z,79.80
2023-01-29T05:15:20.501Z,80.00
2023-01-29T05:18:15.023Z,79.90
2023-01-29T05:21:11.135Z,79.40
2023-01-29T05:24:31.385Z,78.80
2023-01-29T05:27:52.545Z,77.90
2023-01-29T05:30:49.590Z,78.30
2023-01-29T05:33:43.980Z,77.10
2023-01-29T05:36:38.275Z,76.50
2023-01-29T05:39:32.750Z,77.00
2023-01-29T05:42:27.043Z,76.90
2023-01-29T05:45:22.248Z,77.30
2023-01-29T05:48:16.466Z,76.60
2023-01-29T05:51:10.823Z,76.30
2023-01-29T05:54:05.181Z,75.70
2023-01-29T05:56:59.487Z,75.10
2023-01-29T05:59:53.693Z,74.20
2023-01-29T06:02:48.042Z,74.30
2023-01-29T06:05:42.804Z,74.10
2023-01-29T06:08:40.022Z,73.60
2023-01-29T06:11:33.771Z,74.00
2023-01-29T06:14:28.243Z,74.10
2023-01-29T06:17:22.545Z,74.20
2023-01-29T06:20:17.165Z,73.40
2023-01-29T06:23:11.769Z,73.60
2023-01-29T06:26:14.352Z,73.60
2023-01-29T06:29:08.603Z,73.60
2023-01-29T06:32:03.326Z,73.70
2023-01-29T06:34:57.639Z,73.50
2023-01-29T06:37:53.123Z,74.20
2023-01-29T06:40:47.334Z,73.80
2023-01-29T06:43:41.866Z,73.30
2023-01-29T06:46:36.178Z,72.50
2023-01-29T06:49:30.470Z,73.20
2023-01-29T06:52:26.610Z,72.80
2023-01-29T06:55:20.905Z,71.90
2023-01-29T06:58:15.154Z,72.60
2023-01-29T07:01:29.261Z,72.90
2023-01-29T07:04:28.842Z,72.40
2023-01-29T07:07:23.140Z,72.70
2023-01-29T07:10:18.177Z,72.00
2023-01-29T07:13:12.829Z,72.40
2023-01-29T07:16:08.379Z,72.40
2023-01-29T07:19:10.336Z,72.30
2023-01-29T07:22:07.865Z,73.40
2023-01-29T07:25:02.286Z,72.80
2023-01-29T07:27:56.471Z,73.30
2023-01-29T07:30:50.807Z,73.00
2023-01-29T07:33:48.194Z,72.80
2023-01-29T07:36:42.529Z,72.10
2023-01-29T07:39:36.831Z,72.60
2023-01-29T07:42:31.213Z,72.50
2023-01-29T07:45:25.462Z,71.90
2023-01-29T07:48:20.014Z,71.60
2023-01-29T07:51:14.291Z,72.20
2023-01-29T07:54:08.783Z,72.10
2023-01-29T07:57:03.052Z,71.90
2023-01-29T07:59:57.395Z,71.40
2023-01-29T08:02:51.835Z,71.40
2023-01-29T08:05:46.778Z,71.60
2023-01-29T08:08:42.753Z,72.50
2023-01-29T08:11:37.213Z,72.00
2023-01-29T08:14:31.395Z,71.40
2023-01-29T08:17:25.906Z,71.90
2023-01-29T08:20:20.806Z,72.80
2023-01-29T08:23:17.848Z,71.10
2023-01-29T08:26:14.886Z,70.40
2023-01-29T08:29:09.216Z,71.10
2023-01-29T08:32:03.529Z,70.40
2023-01-29T08:34:57.773Z,70.10
2023-01-29T08:38:03.231Z,70.40
2023-01-29T08:40:57.510Z,70.40
2023-01-29T08:43:51.720Z,69.90
2023-01-29T08:46:46.137Z,70.20
2023-01-29T08:49:40.312Z,70.40
2023-01-29T08:52:34.610Z,70.80
2023-01-29T08:55:29.435Z,70.00
2023-01-29T08:58:25.949Z,69.50
2023-01-29T09:01:20.376Z,69.50
2023-01-29T09:04:14.627Z,68.80
2023-01-29T09:07:08.812Z,69.20
2023-01-29T09:10:03.190Z,67.90
2023-01-29T09:12:57.501Z,68.60
2023-01-29T09:15:52.104Z,68.70
2023-01-29T09:18:46.660Z,69.40
2023-01-29T09:21:41.126Z,69.40
2023-01-29T09:24:36.335Z,69.20
2023-01-29T09:27:30.761Z,68.70
2023-01-29T09:30:25.084Z,68.70
2023-01-29T09:33:19.852Z,69.00
2023-01-29T09:36:14.170Z,69.30
2023-01-29T09:39:08.475Z,69.60
2023-01-29T09:42:07.744Z,69.30
2023-01-29T09:45:22.459Z,69.10
2023-01-29T09:48:19.836Z,69.80
2023-01-29T09:51:27.135Z,69.80
2023-01-29T09:54:24.221Z,69.90
2023-01-29T09:57:26.356Z,69.40
2023-01-29T10:00:41.179Z,69.30
2023-01-29T10:03:46.393Z,69.30
2023-01-29T10:07:07.980Z,69.40
2023-01-29T10:10:11.656Z,69.90
2023-01-29T10:13:22.937Z,70.10
2023-01-29T10:16:23.391Z,70.10
2023-01-29T10:19:36.041Z,69.10
2023-01-29T10:22:54.613Z,69.90
2023-01-29T10:25:50.674Z,70.20
2023-01-29T10:28:48.776Z,70.00
2023-01-29T10:31:46.091Z,70.40
2023-01-29T10:35:01.143Z,70.00
2023-01-29T10:37:58.272Z,70.10
2023-01-29T10:41:12.777Z,69.70
2023-01-29T10:44:10.148Z,69.80
2023-01-29T10:47:23.100Z,69.80
2023-01-29T10:50:39.172Z,70.00
2023-01-29T10:53:55.257Z,70.00
2023-01-29T10:57:24.384Z,70.30
2023-01-29T11:00:29.834Z,70.30
2023-01-29T11:03:32.344Z,70.40
2023-01-29T11:06:30.952Z,70.80
2023-01-29T11:09:41.254Z,70.40
2023-01-29T11:12:36.081Z,70.70
2023-01-29T11:15:40.797Z,70.70
2023-01-29T11:18:55.341Z,70.80
2023-01-29T11:22:02.956Z,71.10
2023-01-29T11:25:18.079Z,71.30
2023-01-29T11:28:12.708Z,71.10
2023-01-29T11:31:21.156Z,71.00
2023-01-29T11:34:23.233Z,70.90
2023-01-29T11:37:20.924Z,70.90
2023-01-29T11:40:21.747Z,70.60
2023-01-29T11:43:22.120Z,70.40
2023-01-29T11:46:17.651Z,70.70
2023-01-29T11:49:24.679Z,70.50
2023-01-29T11:52:22.622Z,70.70
2023-01-29T11:55:29.627Z,70.60
2023-01-29T11:58:34.030Z,70.30
2023-01-29T12:01:42.942Z,70.40
2023-01-29T12:04:41.467Z,70.50
2023-01-29T12:07:36.667Z,70.30
2023-01-29T12:10:43.261Z,70.10
2023-01-29T12:13:37.529Z,70.30
2023-01-29T12:16:57.910Z,70.60
2023-01-29T12:20:05.123Z,70.50
2023-01-29T12:23:13.350Z,70.50
2023-01-29T12:26:15.420Z,70.40
2023-01-29T12:29:18.390Z,70.60
2023-01-29T12:32:43.568Z,70.60
2023-01-29T12:35:52.793Z,70.00
2023-01-29T12:38:47.741Z,69.90
2023-01-29T12:41:48.277Z,69.50
2023-01-29T12:44:44.964Z,69.50
2023-01-29T12:47:53.861Z,69.20
2023-01-29T12:50:50.408Z,69.60
2023-01-29T12:54:05.977Z,69.60
2023-01-29T12:57:04.715Z,69.80
2023-01-29T13:00:08.055Z,70.00
2023-01-29T13:03:20.672Z,70.30
2023-01-29T13:06:19.522Z,70.30
2023-01-29T13:09:22.198Z,70.10
2023-01-29T13:12:24.048Z,70.00
2023-01-29T13:15:48.436Z,70.50
2023-01-29T13:18:54.103Z,70.40
2023-01-29T13:21:49.096Z,70.50
2023-01-29T13:24:49.950Z,70.50
2023-01-29T13:27:53.424Z,70.40
2023-01-29T13:30:48.107Z,70.50
2023-01-29T13:33:44.808Z,70.80
2023-01-29T13:36:43.708Z,71.20
2023-01-29T13:39:47.712Z,71.20
2023-01-29T13:42:49.781Z,71.50
2023-01-29T13:45:49.295Z,71.70
2023-01-29T13:48:46.427Z,72.30
2023-01-29T13:51:40.807Z,72.80
2023-01-29T13:54:35.012Z,73.20
2023-01-29T13:57:46.485Z,73.20
2023-01-29T14:00:43.225Z,73.30
2023-01-29T14:04:08.102Z,73.40
2023-01-29T14:07:07.765Z,73.70
2023-01-29T14:10:17.393Z,74.10
2023-01-29T14:13:20.595Z,74.40
2023-01-29T14:16:14.850Z,74.30
2023-01-29T14:19:19.391Z,74.30
2023-01-29T14:22:33.862Z,74.10
2023-01-29T14:25:40.080Z,74.20
2023-01-29T14:28:36.667Z,74.20
2023-01-29T14:31:40.103Z,74.30
2023-01-29T14:34:43.349Z,74.60
2023-01-29T14:37:55.301Z,74.80
2023-01-29T14:40:56.916Z,75.00
2023-01-29T14:43:52.957Z,75.20
2023-01-29T14:46:47.515Z,75.40
2023-01-29T14:50:28.669Z,75.60
2023-01-29T14:53:32.140Z,76.30
2023-01-29T14:56:38.855Z,76.70
2023-01-29T14:59:39.088Z,77.00
2023-01-29T15:02:40.390Z,77.20
2023-01-29T15:05:41.423Z,77.60
2023-01-29T15:08:45.428Z,77.80
2023-01-29T15:11:57.816Z,78.30
2023-01-29T15:15:33.627Z,78.50
2023-01-29T15:18:44.511Z,78.40
2023-01-29T15:21:38.757Z,78.50
2023-01-29T15:24:33.144Z,78.70
2023-01-29T15:27:27.421Z,78.70
2023-01-29T15:30:32.688Z,78.90
2023-01-29T15:33:27.830Z,79.40
2023-01-29T15:36:30.907Z,79.70
2023-01-29T15:39:26.673Z,80.20
2023-01-29T15:42:26.988Z,80.30
2023-01-29T15:45:32.325Z,80.70
2023-01-29T15:48:57.315Z,80.90
2023-01-29T15:51:58.034Z,81.40
2023-01-29T15:54:53.911Z,81.40
2023-01-29T15:57:49.910Z,81.50
2023-01-29T16:00:54.891Z,81.70
2023-01-29T16:03:51.915Z,82.00
2023-01-29T16:06:46.888Z,82.50
2023-01-29T16:09:41.502Z,83.30
2023-01-29T16:12:36.610Z,83.60
2023-01-29T16:15:41.482Z,84.00
2023-01-29T16:18:47.757Z,84.20
2023-01-29T16:21:54.471Z,84.20
2023-01-29T16:24:51.246Z,84.30
2023-01-29T16:27:46.121Z,84.80
2023-01-29T16:30:41.273Z,85.50
2023-01-29T16:33:42.215Z,85.90
2023-01-29T16:36:45.404Z,85.80
2023-01-29T16:39:45.442Z,85.70
2023-01-29T16:42:39.844Z,85.70
2023-01-29T16:45:34.096Z,87.50
2023-01-29T16:48:33.055Z,87.80
2023-01-29T16:51:37.610Z,88.20
2023-01-29T16:54:32.020Z,88.30
2023-01-29T16:57:30.941Z,88.30
2023-01-29T17:00:34.865Z,88.10
2023-01-29T17:03:32.008Z,88.10
2023-01-29T17:06:30.866Z,88.00
2023-01-29T17:09:38.703Z,88.30
2023-01-29T17:12:34.304Z,88.00
2023-01-29T17:15:45.198Z,88.00
2023-01-29T17:18:40.361Z,88.20
2023-01-29T17:21:34.594Z,88.50
2023-01-29T17:24:32.923Z,88.60
2023-01-29T17:27:27.331Z,88.80
2023-01-29T17:30:31.959Z,88.80
2023-01-29T17:33:27.690Z,89.10
2023-01-29T17:36:22.263Z,89.70
2023-01-29T17:39:19.534Z,89.60
2023-01-29T17:42:14.564Z,89.40
2023-01-29T17:45:09.416Z,89.60
2023-01-29T17:48:03.872Z,90.00
2023-01-29T17:51:02.199Z,91.10
2023-01-29T17:53:56.598Z,91.30
2023-01-29T17:56:51.654Z,91.10
2023-01-29T17:59:49.742Z,91.00
2023-01-29T18:02:43.976Z,90.90
2023-01-29T18:05:40.462Z,90.80
2023-01-29T18:08:37.745Z,91.00
2023-01-29T18:11:31.643Z,90.80
2023-01-29T18:14:26.385Z,90.70
2023-01-29T18:17:23.755Z,90.60
2023-01-29T18:20:22.484Z,90.70
2023-01-29T18:23:20.731Z,90.80
2023-01-29T18:26:19.223Z,90.80
2023-01-29T18:29:13.732Z,90.90
2023-01-29T18:32:08.126Z,90.90
2023-01-29T18:35:02.602Z,91.00
2023-01-29T18:37:57.187Z,91.10
2023-01-29T18:40:51.824Z,91.10
2023-01-29T18:43:46.068Z,91.20
2023-01-29T18:46:40.648Z,91.30
2023-01-29T18:49:37.481Z,91.30
2023-01-29T18:52:31.892Z,91.30
2023-01-29T18:55:27.741Z,91.50
2023-01-29T18:58:29.132Z,91.30
2023-01-29T19:01:30.149Z,91.40
2023-01-29T19:04:28.517Z,91.50
2023-01-29T19:07:22.827Z,91.50
2023-01-29T19:10:18.421Z,91.80
2023-01-29T19:13:12.676Z,91.90
2023-01-29T19:16:11.746Z,91.90
2023-01-29T19:19:08.322Z,91.90
2023-01-29T19:22:02.792Z,92.00
2023-01-29T19:24:57.222Z,92.10
2023-01-29T19:27:51.499Z,92.30
2023-01-29T19:30:46.013Z,92.20
2023-01-29T19:33:42.423Z,92.30
2023-01-29T19:36:41.471Z,92.40
2023-01-29T19:39:36.151Z,92.40
2023-01-29T19:42:30.574Z,92.50
2023-01-29T19:45:49.610Z,92.50
2023-01-29T19:48:41.855Z,92.60
2023-01-29T19:51:36.229Z,92.80
2023-01-29T19:54:33.517Z,92.80
2023-01-29T19:57:27.350Z,92.90
2023-01-29T20:00:22.810Z,93.10
2023-01-29T20:03:26.466Z,92.90
2023-01-29T20:06:25.040Z,93.10
2023-01-29T20:09:19.446Z,93.30
2023-01-29T20:12:14.382Z,93.40
2023-01-29T20:15:09.714Z,93.40
2023-01-29T20:18:05.042Z,94.10
2023-01-29T20:21:00.810Z,94.20
2023-01-29T20:23:55.437Z,94.40
2023-01-29T20:26:49.743Z,94.50
2023-01-29T20:29:48.237Z,94.50
2023-01-29T20:32:44.936Z,94.50
2023-01-29T20:35:40.294Z,94.70
2023-01-29T20:38:35.926Z,94.80
2023-01-29T20:41:30.131Z,94.60
2023-01-29T20:44:25.455Z,94.60
2023-01-29T20:47:19.723Z,94.80
2023-01-29T20:50:20.211Z,95.00
2023-01-29T20:53:14.509Z,95.00
2023-01-29T20:56:09.987Z,95.10
2023-01-29T20:59:06.014Z,95.10
2023-01-29T21:02:03.168Z,95.20
2023-01-29T21:04:57.936Z,95.30
2023-01-29T21:07:52.169Z,95.40
2023-01-29T21:10:49.005Z,95.50
2023-01-29T21:13:45.234Z,95.30
2023-01-29T21:16:39.445Z,95.30
2023-01-29T21:19:34.435Z,95.30
2023-01-29T21:22:28.714Z,95.40
2023-01-29T21:25:24.301Z,95.40
2023-01-29T21:28:18.578Z,95.40
2023-01-29T21:31:15.979Z,95.30
2023-01-29T21:34:11.004Z,95.40
2023-01-29T21:37:05.310Z,95.80
2023-01-29T21:40:02.444Z,95.70
2023-01-29T21:43:16.657Z,95.70
2023-01-29T21:46:14.086Z,95.90
2023-01-29T21:49:08.505Z,96.20
2023-01-29T21:52:02.818Z,96.50
2023-01-29T21:54:57.234Z,96.50
2023-01-29T21:57:51.918Z,96.40
2023-01-29T22:00:49.809Z,96.10
2023-01-29T22:03:46.733Z,95.90
2023-01-29T22:06:40.992Z,95.80
2023-01-29T22:09:35.258Z,95.70
2023-01-29T22:12:29.568Z,95.40
2023-01-29T22:15:24.084Z,95.30
2023-01-29T22:18:18.703Z,94.80
2023-01-29T22:21:12.979Z,94.60
2023-01-29T22:24:10.753Z,94.00
2023-01-29T22:27:05.138Z,94.30
2023-01-29T22:29:59.518Z,94.50
2023-01-29T22:32:54.091Z,94.80
2023-01-29T22:35:50.468Z,94.70
2023-01-29T22:38:45.330Z,94.30
2023-01-29T22:41:39.596Z,93.80
2023-01-29T22:44:33.784Z,92.40
2023-01-29T22:47:28.126Z,91.50
2023-01-29T22:50:22.577Z,89.40
2023-01-29T22:53:16.822Z,85.40
2023-01-29T22:56:11.941Z,83.50
2023-01-29T22:59:06.310Z,82.40
2023-01-29T23:02:00.851Z,81.70
2023-01-29T23:04:55.299Z,80.40
2023-01-29T23:07:49.664Z,78.70
2023-01-29T23:10:43.994Z,78.90
2023-01-29T23:13:38.151Z,77.00
2023-01-29T23:16:32.514Z,75.80
2023-01-29T23:19:28.281Z,74.20
2023-01-29T23:22:22.529Z,74.50
2023-01-29T23:25:17.123Z,72.80
2023-01-29T23:28:14.280Z,71.20
2023-01-29T23:31:08.093Z,70.80
2023-01-29T23:34:02.488Z,71.30
2023-01-29T23:36:59.334Z,68.40
2023-01-29T23:39:54.090Z,67.60
2023-01-29T23:42:50.693Z,68.60
2023-01-29T23:45:44.922Z,69.10
2023-01-29T23:48:39.283Z,67.70
2023-01-29T23:51:33.885Z,66.80
2023-01-29T23:54:28.140Z,68.30
2023-01-29T23:57:22.364Z,67.40
